sensor_id;sensor_type;location;lat;lon;timestamp;temperature;humidity
32322;DHT22;61553;48.994;8.940;2023-12-14T00:02:00;6.60;99.90
32322;DHT22;61553;48.994;8.940;2023-12-14T00:04:25;6.70;99.90
32322;DHT22;61553;48.994;8.940;2023-12-14T00:06:51;6.70;99.90
32322;DHT22;61553;48.994;8.940;2023-12-14T00:09:17;6.70;99.90
32322;DHT22;61553;48.994;8.940;2023-12-14T00:11:42;6.70;99.90
32322;DHT22;61553;48.994;8.940;2023-12-14T00:14:08;6.70;99.90
32322;DHT22;61553;48.994;8.940;2023-12-14T00:16:34;6.70;99.90
32322;DHT22;61553;48.994;8.940;2023-12-14T00:18:59;6.70;99.90
32322;DHT22;61553;48.994;8.940;2023-12-14T00:21:25;6.80;99.90
32322;DHT22;61553;48.994;8.940;2023-12-14T00:23:50;6.80;99.90
32322;DHT22;61553;48.994;8.940;2023-12-14T00:26:16;6.80;99.90
32322;DHT22;61553;48.994;8.940;2023-12-14T00:28:43;6.80;99.90
32322;DHT22;61553;48.994;8.940;2023-12-14T00:31:08;6.80;99.90
32322;DHT22;61553;48.994;8.940;2023-12-14T00:33:34;6.80;99.90
32322;DHT22;61553;48.994;8.940;2023-12-14T00:36:00;6.90;99.90
32322;DHT22;61553;48.994;8.940;2023-12-14T00:38:25;6.90;99.90
32322;DHT22;61553;48.994;8.940;2023-12-14T00:40:51;6.90;99.90
32322;DHT22;61553;48.994;8.940;2023-12-14T00:43:17;6.90;99.90
32322;DHT22;61553;48.994;8.940;2023-12-14T00:45:42;6.90;99.90
32322;DHT22;61553;48.994;8.940;2023-12-14T00:48:08;6.90;99.90
32322;DHT22;61553;48.994;8.940;2023-12-14T00:50:34;7.00;99.90
32322;DHT22;61553;48.994;8.940;2023-12-14T00:52:59;7.00;99.90
32322;DHT22;61553;48.994;8.940;2023-12-14T00:55:25;6.90;99.90
32322;DHT22;61553;48.994;8.940;2023-12-14T00:57:50;6.90;99.90
32322;DHT22;61553;48.994;8.940;2023-12-14T01:00:16;7.00;99.90
32322;DHT22;61553;48.994;8.940;2023-12-14T01:02:42;6.90;99.90
32322;DHT22;61553;48.994;8.940;2023-12-14T01:05:08;6.90;99.90
32322;DHT22;61553;48.994;8.940;2023-12-14T01:07:33;6.90;99.90
32322;DHT22;61553;48.994;8.940;2023-12-14T01:09:59;6.90;99.90
32322;DHT22;61553;48.994;8.940;2023-12-14T01:12:25;6.90;99.90
32322;DHT22;61553;48.994;8.940;2023-12-14T01:14:50;6.80;99.90
32322;DHT22;61553;48.994;8.940;2023-12-14T01:17:16;6.80;99.90
32322;DHT22;61553;48.994;8.940;2023-12-14T01:19:42;6.80;99.90
32322;DHT22;61553;48.994;8.940;2023-12-14T01:22:07;6.80;99.90
32322;DHT22;61553;48.994;8.940;2023-12-14T01:24:33;6.90;99.90
32322;DHT22;61553;48.994;8.940;2023-12-14T01:26:58;6.90;99.90
32322;DHT22;61553;48.994;8.940;2023-12-14T01:29:24;6.90;99.90
32322;DHT22;61553;48.994;8.940;2023-12-14T01:31:50;6.90;99.90
32322;DHT22;61553;48.994;8.940;2023-12-14T01:34:15;7.00;99.90
32322;DHT22;61553;48.994;8.940;2023-12-14T01:36:41;7.00;99.90
32322;DHT22;61553;48.994;8.940;2023-12-14T01:39:07;7.00;99.90
32322;DHT22;61553;48.994;8.940;2023-12-14T01:41:32;7.00;99.90
32322;DHT22;61553;48.994;8.940;2023-12-14T01:43:58;7.00;99.90
32322;DHT22;61553;48.994;8.940;2023-12-14T01:46:24;7.00;99.90
32322;DHT22;61553;48.994;8.940;2023-12-14T01:48:49;7.00;99.90
32322;DHT22;61553;48.994;8.940;2023-12-14T01:51:17;6.90;99.90
32322;DHT22;61553;48.994;8.940;2023-12-14T01:53:43;6.90;99.90
32322;DHT22;61553;48.994;8.940;2023-12-14T01:56:08;6.90;99.90
32322;DHT22;61553;48.994;8.940;2023-12-14T01:58:34;7.00;99.90
32322;DHT22;61553;48.994;8.940;2023-12-14T02:03:26;7.00;99.90
32322;DHT22;61553;48.994;8.940;2023-12-14T02:05:51;7.00;99.90
32322;DHT22;61553;48.994;8.940;2023-12-14T02:08:17;7.00;99.90
32322;DHT22;61553;48.994;8.940;2023-12-14T02:10:43;7.00;99.90
32322;DHT22;61553;48.994;8.940;2023-12-14T02:13:08;7.00;99.90
32322;DHT22;61553;48.994;8.940;2023-12-14T02:15:34;7.00;99.90
32322;DHT22;61553;48.994;8.940;2023-12-14T02:17:59;7.10;99.90
32322;DHT22;61553;48.994;8.940;2023-12-14T02:20:25;7.10;99.90
32322;DHT22;61553;48.994;8.940;2023-12-14T02:22:54;7.10;99.90
32322;DHT22;61553;48.994;8.940;2023-12-14T02:25:21;7.10;99.90
32322;DHT22;61553;48.994;8.940;2023-12-14T02:27:49;7.10;99.90
32322;DHT22;61553;48.994;8.940;2023-12-14T02:30:15;7.10;99.90
32322;DHT22;61553;48.994;8.940;2023-12-14T02:32:41;7.20;99.90
32322;DHT22;61553;48.994;8.940;2023-12-14T02:35:07;7.20;99.90
32322;DHT22;61553;48.994;8.940;2023-12-14T02:37:34;7.20;99.90
32322;DHT22;61553;48.994;8.940;2023-12-14T02:40:02;7.20;99.90
32322;DHT22;61553;48.994;8.940;2023-12-14T02:42:29;7.20;99.90
32322;DHT22;61553;48.994;8.940;2023-12-14T02:44:55;7.10;99.90
32322;DHT22;61553;48.994;8.940;2023-12-14T02:47:21;7.10;99.90
32322;DHT22;61553;48.994;8.940;2023-12-14T02:49:47;7.10;99.90
32322;DHT22;61553;48.994;8.940;2023-12-14T02:52:12;7.10;99.90
32322;DHT22;61553;48.994;8.940;2023-12-14T02:54:39;7.10;99.90
32322;DHT22;61553;48.994;8.940;2023-12-14T02:57:05;7.10;99.90
32322;DHT22;61553;48.994;8.940;2023-12-14T02:59:30;7.10;99.90
32322;DHT22;61553;48.994;8.940;2023-12-14T03:01:56;7.10;99.90
32322;DHT22;61553;48.994;8.940;2023-12-14T03:04:22;7.10;99.90
32322;DHT22;61553;48.994;8.940;2023-12-14T03:06:47;7.10;99.90
32322;DHT22;61553;48.994;8.940;2023-12-14T03:09:13;7.00;99.90
32322;DHT22;61553;48.994;8.940;2023-12-14T03:11:38;7.00;99.90
32322;DHT22;61553;48.994;8.940;2023-12-14T03:14:04;7.00;99.90
32322;DHT22;61553;48.994;8.940;2023-12-14T03:16:30;7.00;99.90
32322;DHT22;61553;48.994;8.940;2023-12-14T03:18:55;7.00;99.90
32322;DHT22;61553;48.994;8.940;2023-12-14T03:21:22;7.00;99.90
32322;DHT22;61553;48.994;8.940;2023-12-14T03:23:49;7.00;99.90
32322;DHT22;61553;48.994;8.940;2023-12-14T03:26:15;7.00;99.90
32322;DHT22;61553;48.994;8.940;2023-12-14T03:28:41;7.00;99.90
32322;DHT22;61553;48.994;8.940;2023-12-14T03:31:06;7.00;99.90
32322;DHT22;61553;48.994;8.940;2023-12-14T03:33:32;7.00;99.90
32322;DHT22;61553;48.994;8.940;2023-12-14T03:35:58;7.00;99.90
32322;DHT22;61553;48.994;8.940;2023-12-14T03:38:24;7.10;99.90
32322;DHT22;61553;48.994;8.940;2023-12-14T03:40:50;7.10;99.90
32322;DHT22;61553;48.994;8.940;2023-12-14T03:43:16;7.10;99.90
32322;DHT22;61553;48.994;8.940;2023-12-14T03:45:41;7.10;99.90
32322;DHT22;61553;48.994;8.940;2023-12-14T03:48:07;7.10;99.90
32322;DHT22;61553;48.994;8.940;2023-12-14T03:50:33;7.20;99.90
32322;DHT22;61553;48.994;8.940;2023-12-14T03:52:59;7.20;99.90
32322;DHT22;61553;48.994;8.940;2023-12-14T03:55:24;7.20;99.90
32322;DHT22;61553;48.994;8.940;2023-12-14T03:57:50;7.20;99.90
32322;DHT22;61553;48.994;8.940;2023-12-14T04:00:16;7.20;99.90
32322;DHT22;61553;48.994;8.940;2023-12-14T04:02:42;7.10;99.90
32322;DHT22;61553;48.994;8.940;2023-12-14T04:05:10;7.10;99.90
32322;DHT22;61553;48.994;8.940;2023-12-14T04:07:39;7.10;99.90
32322;DHT22;61553;48.994;8.940;2023-12-14T04:10:09;7.10;99.90
32322;DHT22;61553;48.994;8.940;2023-12-14T04:12:36;7.10;99.90
32322;DHT22;61553;48.994;8.940;2023-12-14T04:15:03;7.10;99.90
32322;DHT22;61553;48.994;8.940;2023-12-14T04:17:30;7.20;99.90
32322;DHT22;61553;48.994;8.940;2023-12-14T04:19:55;7.20;99.90
32322;DHT22;61553;48.994;8.940;2023-12-14T04:22:21;7.20;99.90
32322;DHT22;61553;48.994;8.940;2023-12-14T04:24:47;7.20;99.90
32322;DHT22;61553;48.994;8.940;2023-12-14T04:27:14;7.20;99.90
32322;DHT22;61553;48.994;8.940;2023-12-14T04:29:39;7.20;99.90
32322;DHT22;61553;48.994;8.940;2023-12-14T04:32:05;7.20;99.90
32322;DHT22;61553;48.994;8.940;2023-12-14T04:34:31;7.20;99.90
32322;DHT22;61553;48.994;8.940;2023-12-14T04:36:57;7.20;99.90
32322;DHT22;61553;48.994;8.940;2023-12-14T04:39:24;7.30;99.90
32322;DHT22;61553;48.994;8.940;2023-12-14T04:41:50;7.20;99.90
32322;DHT22;61553;48.994;8.940;2023-12-14T04:44:16;7.30;99.90
32322;DHT22;61553;48.994;8.940;2023-12-14T04:46:42;7.30;99.90
32322;DHT22;61553;48.994;8.940;2023-12-14T04:49:07;7.30;99.90
32322;DHT22;61553;48.994;8.940;2023-12-14T04:51:33;7.30;99.90
32322;DHT22;61553;48.994;8.940;2023-12-14T04:53:59;7.30;99.90
32322;DHT22;61553;48.994;8.940;2023-12-14T04:56:24;7.30;99.90
32322;DHT22;61553;48.994;8.940;2023-12-14T04:58:50;7.30;99.90
32322;DHT22;61553;48.994;8.940;2023-12-14T05:01:15;7.40;99.90
32322;DHT22;61553;48.994;8.940;2023-12-14T05:03:41;7.30;99.90
32322;DHT22;61553;48.994;8.940;2023-12-14T05:06:07;7.40;99.90
32322;DHT22;61553;48.994;8.940;2023-12-14T05:08:33;7.40;99.90
32322;DHT22;61553;48.994;8.940;2023-12-14T05:10:58;7.30;99.90
32322;DHT22;61553;48.994;8.940;2023-12-14T05:13:24;7.30;99.90
32322;DHT22;61553;48.994;8.940;2023-12-14T05:15:51;7.30;99.90
32322;DHT22;61553;48.994;8.940;2023-12-14T05:18:17;7.30;99.90
32322;DHT22;61553;48.994;8.940;2023-12-14T05:20:43;7.30;99.90
32322;DHT22;61553;48.994;8.940;2023-12-14T05:23:11;7.30;99.90
32322;DHT22;61553;48.994;8.940;2023-12-14T05:25:37;7.30;99.90
32322;DHT22;61553;48.994;8.940;2023-12-14T05:28:03;7.30;99.90
32322;DHT22;61553;48.994;8.940;2023-12-14T05:30:29;7.30;99.90
32322;DHT22;61553;48.994;8.940;2023-12-14T05:32:54;7.20;99.90
32322;DHT22;61553;48.994;8.940;2023-12-14T05:35:20;7.30;99.90
32322;DHT22;61553;48.994;8.940;2023-12-14T05:37:46;7.30;99.90
32322;DHT22;61553;48.994;8.940;2023-12-14T05:40:12;7.30;99.90
32322;DHT22;61553;48.994;8.940;2023-12-14T05:42:38;7.30;99.90
32322;DHT22;61553;48.994;8.940;2023-12-14T05:45:05;7.40;99.90
32322;DHT22;61553;48.994;8.940;2023-12-14T05:47:31;7.30;99.90
32322;DHT22;61553;48.994;8.940;2023-12-14T05:49:58;7.40;99.90
32322;DHT22;61553;48.994;8.940;2023-12-14T05:52:24;7.30;99.90
32322;DHT22;61553;48.994;8.940;2023-12-14T05:54:50;7.30;99.90
32322;DHT22;61553;48.994;8.940;2023-12-14T05:57:16;7.30;99.90
32322;DHT22;61553;48.994;8.940;2023-12-14T05:59:41;7.30;99.90
32322;DHT22;61553;48.994;8.940;2023-12-14T06:02:07;7.40;99.90
32322;DHT22;61553;48.994;8.940;2023-12-14T06:04:33;7.30;99.90
32322;DHT22;61553;48.994;8.940;2023-12-14T06:06:59;7.30;99.90
32322;DHT22;61553;48.994;8.940;2023-12-14T06:09:25;7.30;99.90
32322;DHT22;61553;48.994;8.940;2023-12-14T06:11:59;7.30;99.90
32322;DHT22;61553;48.994;8.940;2023-12-14T06:14:26;7.30;99.90
32322;DHT22;61553;48.994;8.940;2023-12-14T06:16:51;7.20;99.90
32322;DHT22;61553;48.994;8.940;2023-12-14T06:19:17;7.20;99.90
32322;DHT22;61553;48.994;8.940;2023-12-14T06:21:43;7.20;99.90
32322;DHT22;61553;48.994;8.940;2023-12-14T06:24:08;7.20;99.90
32322;DHT22;61553;48.994;8.940;2023-12-14T06:26:34;7.20;99.90
32322;DHT22;61553;48.994;8.940;2023-12-14T06:28:59;7.20;99.90
32322;DHT22;61553;48.994;8.940;2023-12-14T06:31:25;7.20;99.90
32322;DHT22;61553;48.994;8.940;2023-12-14T06:33:51;7.20;99.90
32322;DHT22;61553;48.994;8.940;2023-12-14T06:36:17;7.20;99.90
32322;DHT22;61553;48.994;8.940;2023-12-14T06:38:43;7.20;99.90
32322;DHT22;61553;48.994;8.940;2023-12-14T06:41:18;7.20;99.90
32322;DHT22;61553;48.994;8.940;2023-12-14T06:43:44;7.30;99.90
32322;DHT22;61553;48.994;8.940;2023-12-14T06:46:09;7.30;99.90
32322;DHT22;61553;48.994;8.940;2023-12-14T06:48:35;7.30;99.90
32322;DHT22;61553;48.994;8.940;2023-12-14T06:51:00;7.30;99.90
32322;DHT22;61553;48.994;8.940;2023-12-14T06:53:26;7.30;99.90
32322;DHT22;61553;48.994;8.940;2023-12-14T06:55:52;7.30;99.90
32322;DHT22;61553;48.994;8.940;2023-12-14T06:58:18;7.30;99.90
32322;DHT22;61553;48.994;8.940;2023-12-14T07:00:43;7.30;99.90
32322;DHT22;61553;48.994;8.940;2023-12-14T07:03:09;7.40;99.90
32322;DHT22;61553;48.994;8.940;2023-12-14T07:05:35;7.40;99.90
32322;DHT22;61553;48.994;8.940;2023-12-14T07:08:01;7.40;99.90
32322;DHT22;61553;48.994;8.940;2023-12-14T07:10:27;7.40;99.90
32322;DHT22;61553;48.994;8.940;2023-12-14T07:12:53;7.40;99.90
32322;DHT22;61553;48.994;8.940;2023-12-14T07:15:18;7.40;99.90
32322;DHT22;61553;48.994;8.940;2023-12-14T07:17:44;7.50;99.90
32322;DHT22;61553;48.994;8.940;2023-12-14T07:20:10;7.50;99.90
32322;DHT22;61553;48.994;8.940;2023-12-14T07:22:36;7.50;99.90
32322;DHT22;61553;48.994;8.940;2023-12-14T07:25:03;7.40;99.90
32322;DHT22;61553;48.994;8.940;2023-12-14T07:27:29;7.50;99.90
32322;DHT22;61553;48.994;8.940;2023-12-14T07:29:54;7.50;99.90
32322;DHT22;61553;48.994;8.940;2023-12-14T07:32:21;7.50;99.90
32322;DHT22;61553;48.994;8.940;2023-12-14T07:34:47;7.50;99.90
32322;DHT22;61553;48.994;8.940;2023-12-14T07:37:13;7.50;99.90
32322;DHT22;61553;48.994;8.940;2023-12-14T07:39:38;7.50;99.90
32322;DHT22;61553;48.994;8.940;2023-12-14T07:42:04;7.50;99.90
32322;DHT22;61553;48.994;8.940;2023-12-14T07:44:31;7.50;99.90
32322;DHT22;61553;48.994;8.940;2023-12-14T07:46:59;7.50;99.90
32322;DHT22;61553;48.994;8.940;2023-12-14T07:49:24;7.60;99.90
32322;DHT22;61553;48.994;8.940;2023-12-14T07:51:50;7.60;99.90
32322;DHT22;61553;48.994;8.940;2023-12-14T07:54:16;7.60;99.90
32322;DHT22;61553;48.994;8.940;2023-12-14T07:56:41;7.60;99.90
32322;DHT22;61553;48.994;8.940;2023-12-14T07:59:07;7.60;99.90
32322;DHT22;61553;48.994;8.940;2023-12-14T08:01:36;7.60;99.90
32322;DHT22;61553;48.994;8.940;2023-12-14T08:04:02;7.60;99.90
32322;DHT22;61553;48.994;8.940;2023-12-14T08:06:29;7.60;99.90
32322;DHT22;61553;48.994;8.940;2023-12-14T08:08:55;7.70;99.90
32322;DHT22;61553;48.994;8.940;2023-12-14T08:11:23;7.70;99.90
32322;DHT22;61553;48.994;8.940;2023-12-14T08:13:49;7.70;99.90
32322;DHT22;61553;48.994;8.940;2023-12-14T08:16:15;7.80;99.90
32322;DHT22;61553;48.994;8.940;2023-12-14T08:18:43;7.80;99.90
32322;DHT22;61553;48.994;8.940;2023-12-14T08:21:11;7.80;99.90
32322;DHT22;61553;48.994;8.940;2023-12-14T08:23:36;7.90;99.90
32322;DHT22;61553;48.994;8.940;2023-12-14T08:26:02;7.90;99.90
32322;DHT22;61553;48.994;8.940;2023-12-14T08:28:28;7.90;99.90
32322;DHT22;61553;48.994;8.940;2023-12-14T08:30:53;7.90;99.90
32322;DHT22;61553;48.994;8.940;2023-12-14T08:33:19;7.90;99.90
32322;DHT22;61553;48.994;8.940;2023-12-14T08:35:45;8.00;99.90
32322;DHT22;61553;48.994;8.940;2023-12-14T08:38:10;7.90;99.90
32322;DHT22;61553;48.994;8.940;2023-12-14T08:40:37;8.00;99.90
32322;DHT22;61553;48.994;8.940;2023-12-14T08:43:03;8.00;99.90
32322;DHT22;61553;48.994;8.940;2023-12-14T08:45:29;8.20;99.90
32322;DHT22;61553;48.994;8.940;2023-12-14T08:47:55;8.20;99.90
32322;DHT22;61553;48.994;8.940;2023-12-14T08:50:20;8.40;99.90
32322;DHT22;61553;48.994;8.940;2023-12-14T08:52:46;8.50;99.90
32322;DHT22;61553;48.994;8.940;2023-12-14T08:55:12;8.50;99.90
32322;DHT22;61553;48.994;8.940;2023-12-14T08:57:38;8.50;99.90
32322;DHT22;61553;48.994;8.940;2023-12-14T09:00:05;8.50;99.90
32322;DHT22;61553;48.994;8.940;2023-12-14T09:02:32;8.60;99.90
32322;DHT22;61553;48.994;8.940;2023-12-14T09:04:58;8.60;99.90
32322;DHT22;61553;48.994;8.940;2023-12-14T09:07:23;8.50;99.90
32322;DHT22;61553;48.994;8.940;2023-12-14T09:09:54;8.50;99.90
32322;DHT22;61553;48.994;8.940;2023-12-14T09:12:20;8.60;99.90
32322;DHT22;61553;48.994;8.940;2023-12-14T09:14:46;8.60;99.90
32322;DHT22;61553;48.994;8.940;2023-12-14T09:17:11;8.70;99.90
32322;DHT22;61553;48.994;8.940;2023-12-14T09:19:37;8.90;99.90
32322;DHT22;61553;48.994;8.940;2023-12-14T09:22:03;9.00;99.90
32322;DHT22;61553;48.994;8.940;2023-12-14T09:24:29;9.10;99.90
32322;DHT22;61553;48.994;8.940;2023-12-14T09:26:55;9.10;99.90
32322;DHT22;61553;48.994;8.940;2023-12-14T09:29:20;9.00;99.90
32322;DHT22;61553;48.994;8.940;2023-12-14T09:31:46;8.90;99.90
32322;DHT22;61553;48.994;8.940;2023-12-14T09:34:12;9.00;99.90
32322;DHT22;61553;48.994;8.940;2023-12-14T09:36:40;9.00;99.90
32322;DHT22;61553;48.994;8.940;2023-12-14T09:39:07;8.90;99.90
32322;DHT22;61553;48.994;8.940;2023-12-14T09:41:37;9.00;99.90
32322;DHT22;61553;48.994;8.940;2023-12-14T09:44:04;9.10;99.90
32322;DHT22;61553;48.994;8.940;2023-12-14T09:46:31;9.20;99.90
32322;DHT22;61553;48.994;8.940;2023-12-14T09:48:57;9.30;99.90
32322;DHT22;61553;48.994;8.940;2023-12-14T09:51:24;9.40;99.90
32322;DHT22;61553;48.994;8.940;2023-12-14T09:53:52;9.40;99.90
32322;DHT22;61553;48.994;8.940;2023-12-14T09:56:24;9.40;99.90
32322;DHT22;61553;48.994;8.940;2023-12-14T09:58:49;9.30;99.90
32322;DHT22;61553;48.994;8.940;2023-12-14T10:03:48;9.30;99.90
32322;DHT22;61553;48.994;8.940;2023-12-14T10:06:14;9.20;99.90
32322;DHT22;61553;48.994;8.940;2023-12-14T10:08:39;9.10;99.90
32322;DHT22;61553;48.994;8.940;2023-12-14T10:11:15;9.00;99.90
32322;DHT22;61553;48.994;8.940;2023-12-14T10:13:41;8.90;99.90
32322;DHT22;61553;48.994;8.940;2023-12-14T10:16:07;8.90;99.90
32322;DHT22;61553;48.994;8.940;2023-12-14T10:18:33;8.80;99.90
32322;DHT22;61553;48.994;8.940;2023-12-14T10:21:02;8.70;99.90
32322;DHT22;61553;48.994;8.940;2023-12-14T10:23:28;8.70;99.90
32322;DHT22;61553;48.994;8.940;2023-12-14T10:25:54;8.70;99.90
32322;DHT22;61553;48.994;8.940;2023-12-14T10:28:20;8.70;99.90
32322;DHT22;61553;48.994;8.940;2023-12-14T10:30:47;8.70;99.90
32322;DHT22;61553;48.994;8.940;2023-12-14T10:33:13;8.70;99.90
32322;DHT22;61553;48.994;8.940;2023-12-14T10:35:41;8.70;99.90
32322;DHT22;61553;48.994;8.940;2023-12-14T10:38:09;8.80;99.90
32322;DHT22;61553;48.994;8.940;2023-12-14T10:40:36;8.80;99.90
32322;DHT22;61553;48.994;8.940;2023-12-14T10:43:06;8.90;99.90
32322;DHT22;61553;48.994;8.940;2023-12-14T10:45:33;9.10;99.90
32322;DHT22;61553;48.994;8.940;2023-12-14T10:48:00;9.10;99.90
32322;DHT22;61553;48.994;8.940;2023-12-14T10:50:30;9.10;99.90
32322;DHT22;61553;48.994;8.940;2023-12-14T10:52:57;9.30;99.90
32322;DHT22;61553;48.994;8.940;2023-12-14T10:55:28;9.50;99.90
32322;DHT22;61553;48.994;8.940;2023-12-14T10:58:00;9.80;99.90
32322;DHT22;61553;48.994;8.940;2023-12-14T11:00:26;9.90;99.90
32322;DHT22;61553;48.994;8.940;2023-12-14T11:02:52;10.00;99.90
32322;DHT22;61553;48.994;8.940;2023-12-14T11:05:18;10.00;99.90
32322;DHT22;61553;48.994;8.940;2023-12-14T11:07:55;10.00;99.90
32322;DHT22;61553;48.994;8.940;2023-12-14T11:10:39;9.90;99.90
32322;DHT22;61553;48.994;8.940;2023-12-14T11:13:13;9.90;99.90
32322;DHT22;61553;48.994;8.940;2023-12-14T11:15:48;9.90;99.90
32322;DHT22;61553;48.994;8.940;2023-12-14T11:18:21;10.00;99.90
32322;DHT22;61553;48.994;8.940;2023-12-14T11:20:53;9.90;99.90
32322;DHT22;61553;48.994;8.940;2023-12-14T11:26:09;10.10;99.90
32322;DHT22;61553;48.994;8.940;2023-12-14T11:28:40;9.90;99.90
32322;DHT22;61553;48.994;8.940;2023-12-14T11:31:12;9.90;99.90
32322;DHT22;61553;48.994;8.940;2023-12-14T11:33:38;9.90;99.90
32322;DHT22;61553;48.994;8.940;2023-12-14T11:36:04;9.90;99.90
32322;DHT22;61553;48.994;8.940;2023-12-14T11:38:30;9.90;99.90
32322;DHT22;61553;48.994;8.940;2023-12-14T11:40:58;9.80;99.90
32322;DHT22;61553;48.994;8.940;2023-12-14T11:43:24;9.60;99.90
32322;DHT22;61553;48.994;8.940;2023-12-14T11:45:52;9.40;99.90
32322;DHT22;61553;48.994;8.940;2023-12-14T11:48:19;9.30;99.90
32322;DHT22;61553;48.994;8.940;2023-12-14T11:50:46;9.10;99.90
32322;DHT22;61553;48.994;8.940;2023-12-14T11:53:12;9.00;99.90
32322;DHT22;61553;48.994;8.940;2023-12-14T11:55:41;9.00;99.90
32322;DHT22;61553;48.994;8.940;2023-12-14T11:58:07;9.10;99.90
32322;DHT22;61553;48.994;8.940;2023-12-14T12:00:34;9.20;99.90
32322;DHT22;61553;48.994;8.940;2023-12-14T12:05:48;9.30;99.90
32322;DHT22;61553;48.994;8.940;2023-12-14T12:08:16;9.50;99.90
32322;DHT22;61553;48.994;8.940;2023-12-14T12:10:44;9.50;99.90
32322;DHT22;61553;48.994;8.940;2023-12-14T12:13:17;9.50;99.90
32322;DHT22;61553;48.994;8.940;2023-12-14T12:15:43;9.50;99.90
32322;DHT22;61553;48.994;8.940;2023-12-14T12:18:10;9.60;99.90
32322;DHT22;61553;48.994;8.940;2023-12-14T12:20:36;9.60;99.90
32322;DHT22;61553;48.994;8.940;2023-12-14T12:23:02;9.70;99.90
32322;DHT22;61553;48.994;8.940;2023-12-14T12:25:30;9.60;99.90
32322;DHT22;61553;48.994;8.940;2023-12-14T12:27:59;9.50;99.90
32322;DHT22;61553;48.994;8.940;2023-12-14T12:30:26;9.40;99.90
32322;DHT22;61553;48.994;8.940;2023-12-14T12:32:51;9.20;99.90
32322;DHT22;61553;48.994;8.940;2023-12-14T12:35:21;8.90;99.90
32322;DHT22;61553;48.994;8.940;2023-12-14T12:37:47;8.80;99.90
32322;DHT22;61553;48.994;8.940;2023-12-14T12:40:19;8.70;99.90
32322;DHT22;61553;48.994;8.940;2023-12-14T12:42:46;8.60;99.90
32322;DHT22;61553;48.994;8.940;2023-12-14T12:45:14;8.50;99.90
32322;DHT22;61553;48.994;8.940;2023-12-14T12:47:40;8.50;99.90
32322;DHT22;61553;48.994;8.940;2023-12-14T12:50:06;8.50;99.90
32322;DHT22;61553;48.994;8.940;2023-12-14T12:52:32;8.60;99.90
32322;DHT22;61553;48.994;8.940;2023-12-14T12:54:57;8.60;99.90
32322;DHT22;61553;48.994;8.940;2023-12-14T12:57:23;8.60;99.90
32322;DHT22;61553;48.994;8.940;2023-12-14T12:59:48;8.70;99.90
32322;DHT22;61553;48.994;8.940;2023-12-14T13:02:14;8.70;99.90
32322;DHT22;61553;48.994;8.940;2023-12-14T13:04:40;8.70;99.90
32322;DHT22;61553;48.994;8.940;2023-12-14T13:07:06;8.70;99.90
32322;DHT22;61553;48.994;8.940;2023-12-14T13:09:31;8.80;99.90
32322;DHT22;61553;48.994;8.940;2023-12-14T13:11:57;8.80;99.90
32322;DHT22;61553;48.994;8.940;2023-12-14T13:14:23;8.80;99.90
32322;DHT22;61553;48.994;8.940;2023-12-14T13:16:48;8.80;99.90
32322;DHT22;61553;48.994;8.940;2023-12-14T13:19:15;8.70;99.90
32322;DHT22;61553;48.994;8.940;2023-12-14T13:21:41;8.80;99.90
32322;DHT22;61553;48.994;8.940;2023-12-14T13:24:07;8.80;99.90
32322;DHT22;61553;48.994;8.940;2023-12-14T13:26:32;8.80;99.90
32322;DHT22;61553;48.994;8.940;2023-12-14T13:28:58;8.80;99.90
32322;DHT22;61553;48.994;8.940;2023-12-14T13:31:24;8.80;99.90
32322;DHT22;61553;48.994;8.940;2023-12-14T13:33:50;8.80;99.90
32322;DHT22;61553;48.994;8.940;2023-12-14T13:36:16;8.80;99.90
32322;DHT22;61553;48.994;8.940;2023-12-14T13:38:42;8.70;99.90
32322;DHT22;61553;48.994;8.940;2023-12-14T13:41:08;8.80;99.90
32322;DHT22;61553;48.994;8.940;2023-12-14T13:43:35;8.70;99.90
32322;DHT22;61553;48.994;8.940;2023-12-14T13:46:00;8.60;99.90
32322;DHT22;61553;48.994;8.940;2023-12-14T13:48:27;8.70;99.90
32322;DHT22;61553;48.994;8.940;2023-12-14T13:50:54;8.70;99.90
32322;DHT22;61553;48.994;8.940;2023-12-14T13:53:20;8.60;99.90
32322;DHT22;61553;48.994;8.940;2023-12-14T13:55:46;8.50;99.90
32322;DHT22;61553;48.994;8.940;2023-12-14T13:58:12;8.50;99.90
32322;DHT22;61553;48.994;8.940;2023-12-14T14:00:38;8.50;99.90
32322;DHT22;61553;48.994;8.940;2023-12-14T14:03:04;8.50;99.90
32322;DHT22;61553;48.994;8.940;2023-12-14T14:05:31;8.50;99.90
32322;DHT22;61553;48.994;8.940;2023-12-14T14:07:57;8.40;99.90
32322;DHT22;61553;48.994;8.940;2023-12-14T14:10:23;8.50;99.90
32322;DHT22;61553;48.994;8.940;2023-12-14T14:12:48;8.50;99.90
32322;DHT22;61553;48.994;8.940;2023-12-14T14:15:14;8.50;99.90
32322;DHT22;61553;48.994;8.940;2023-12-14T14:17:40;8.40;99.90
32322;DHT22;61553;48.994;8.940;2023-12-14T14:20:06;8.40;99.90
32322;DHT22;61553;48.994;8.940;2023-12-14T14:22:33;8.40;99.90
32322;DHT22;61553;48.994;8.940;2023-12-14T14:24:59;8.40;99.90
32322;DHT22;61553;48.994;8.940;2023-12-14T14:27:25;8.30;99.90
32322;DHT22;61553;48.994;8.940;2023-12-14T14:29:51;8.30;99.90
32322;DHT22;61553;48.994;8.940;2023-12-14T14:32:19;8.40;99.90
32322;DHT22;61553;48.994;8.940;2023-12-14T14:34:45;8.40;99.90
32322;DHT22;61553;48.994;8.940;2023-12-14T14:37:10;8.40;99.90
32322;DHT22;61553;48.994;8.940;2023-12-14T14:39:36;8.40;99.90
32322;DHT22;61553;48.994;8.940;2023-12-14T14:42:05;8.40;99.90
32322;DHT22;61553;48.994;8.940;2023-12-14T14:44:30;8.40;99.90
32322;DHT22;61553;48.994;8.940;2023-12-14T14:46:56;8.40;99.90
32322;DHT22;61553;48.994;8.940;2023-12-14T14:49:22;8.40;99.90
32322;DHT22;61553;48.994;8.940;2023-12-14T14:51:47;8.30;99.90
32322;DHT22;61553;48.994;8.940;2023-12-14T14:54:13;8.30;99.90
32322;DHT22;61553;48.994;8.940;2023-12-14T14:56:40;8.30;99.90
32322;DHT22;61553;48.994;8.940;2023-12-14T14:59:06;8.10;99.90
32322;DHT22;61553;48.994;8.940;2023-12-14T15:01:32;8.10;99.90
32322;DHT22;61553;48.994;8.940;2023-12-14T15:03:58;8.10;99.90
32322;DHT22;61553;48.994;8.940;2023-12-14T15:06:25;8.10;99.90
32322;DHT22;61553;48.994;8.940;2023-12-14T15:08:51;8.10;99.90
32322;DHT22;61553;48.994;8.940;2023-12-14T15:11:16;8.00;99.90
32322;DHT22;61553;48.994;8.940;2023-12-14T15:13:42;8.00;99.90
32322;DHT22;61553;48.994;8.940;2023-12-14T15:16:07;7.90;99.90
32322;DHT22;61553;48.994;8.940;2023-12-14T15:18:33;8.00;99.90
32322;DHT22;61553;48.994;8.940;2023-12-14T15:21:09;7.90;99.90
32322;DHT22;61553;48.994;8.940;2023-12-14T15:23:35;7.90;99.90
32322;DHT22;61553;48.994;8.940;2023-12-14T15:26:00;8.00;99.90
32322;DHT22;61553;48.994;8.940;2023-12-14T15:28:26;7.90;99.90
32322;DHT22;61553;48.994;8.940;2023-12-14T15:30:52;7.90;99.90
32322;DHT22;61553;48.994;8.940;2023-12-14T15:33:18;7.90;99.90
32322;DHT22;61553;48.994;8.940;2023-12-14T15:35:43;8.00;99.90
32322;DHT22;61553;48.994;8.940;2023-12-14T15:38:09;8.00;99.90
32322;DHT22;61553;48.994;8.940;2023-12-14T15:40:35;8.00;99.90
32322;DHT22;61553;48.994;8.940;2023-12-14T15:43:04;8.00;99.90
32322;DHT22;61553;48.994;8.940;2023-12-14T15:45:29;8.00;99.90
32322;DHT22;61553;48.994;8.940;2023-12-14T15:47:59;8.00;99.90
32322;DHT22;61553;48.994;8.940;2023-12-14T15:50:25;7.90;99.90